createdAt,value
2022-10-09T00:03:56.984Z,47.6
2022-10-09T00:09:15.500Z,47.4
2022-10-09T00:14:34.237Z,47.9
2022-10-09T00:19:52.718Z,47.8
2022-10-09T00:25:10.671Z,48.7
2022-10-09T00:30:29.376Z,48
2022-10-09T00:35:47.581Z,47.8
2022-10-09T00:41:06.356Z,47.7
2022-10-09T00:46:25.154Z,47.5
2022-10-09T00:51:43.359Z,48.8
2022-10-09T00:57:01.868Z,48
2022-10-09T01:02:20.060Z,48.9
2022-10-09T01:07:38.522Z,48.7
2022-10-09T01:12:57.030Z,48.6
2022-10-09T01:18:14.931Z,49.1
2022-10-09T01:23:33.132Z,48.6
2022-10-09T01:28:51.938Z,49.5
2022-10-09T01:34:10.110Z,49.2
2022-10-09T01:39:28.594Z,48.9
2022-10-09T01:44:47.390Z,49.6
2022-10-09T01:50:06.141Z,48.9
2022-10-09T01:55:24.901Z,49
2022-10-09T02:00:43.421Z,50
2022-10-09T02:06:02.168Z,49.8
2022-10-09T02:11:20.656Z,50
2022-10-09T02:16:39.492Z,48.9
2022-10-09T02:21:57.710Z,49.1
2022-10-09T02:27:15.651Z,50
2022-10-09T02:32:34.163Z,49.2
2022-10-09T02:37:52.356Z,49.2
2022-10-09T02:43:11.132Z,49.5
2022-10-09T02:48:29.645Z,49.3
2022-10-09T02:53:47.844Z,49.4
2022-10-09T02:59:06.612Z,50
2022-10-09T03:04:25.481Z,49.2
2022-10-09T03:09:43.666Z,50
2022-10-09T03:15:02.157Z,48.9
2022-10-09T03:20:20.945Z,49.3
2022-10-09T03:25:39.687Z,50
2022-10-09T03:30:58.000Z,49.3
2022-10-09T03:36:16.559Z,49.1
2022-10-09T03:41:35.032Z,49.2
2022-10-09T03:46:54.013Z,49.6
2022-10-09T03:52:12.499Z,49.1
2022-10-09T03:57:31.254Z,49.2
2022-10-09T04:02:51.007Z,49.2
2022-10-09T04:08:09.741Z,50.5
2022-10-09T04:13:28.494Z,50.1
2022-10-09T04:18:46.704Z,49.3
2022-10-09T04:24:05.217Z,49.3
2022-10-09T04:29:23.677Z,50.1
2022-10-09T04:34:42.168Z,50
2022-10-09T04:40:00.699Z,50.3
2022-10-09T04:45:18.871Z,49.3
2022-10-09T04:50:37.644Z,49.8
2022-10-09T04:55:55.935Z,49.6
2022-10-09T05:01:13.961Z,49.1
2022-10-09T05:06:32.229Z,49.9
2022-10-09T05:11:50.446Z,49.4
2022-10-09T05:17:16.530Z,50
2022-10-09T05:22:36.231Z,49.3
2022-10-09T05:27:54.753Z,49.7
2022-10-09T05:33:13.523Z,49.8
2022-10-09T05:38:32.297Z,49
2022-10-09T05:43:51.194Z,49.8
2022-10-09T05:49:09.666Z,49.2
2022-10-09T05:54:28.155Z,49.8
2022-10-09T05:59:46.682Z,49.9
2022-10-09T06:05:05.161Z,49.3
2022-10-09T06:10:23.972Z,49.8
2022-10-09T06:15:42.194Z,49.9
2022-10-09T06:21:00.755Z,49.6
2022-10-09T06:26:19.470Z,50.1
2022-10-09T06:31:37.827Z,49.4
2022-10-09T06:36:56.006Z,49
2022-10-09T06:42:14.764Z,49.8
2022-10-09T06:47:33.565Z,49.5
2022-10-09T06:52:52.769Z,48.8
2022-10-09T06:58:11.503Z,49.5
2022-10-09T07:03:30.154Z,46
2022-10-09T07:08:48.619Z,45.9
2022-10-09T07:14:07.121Z,45.7
2022-10-09T07:19:25.626Z,46.8
2022-10-09T07:24:44.651Z,46.8
2022-10-09T07:30:03.406Z,47.8
2022-10-09T07:35:21.700Z,47.4
2022-10-09T07:40:40.439Z,48.3
2022-10-09T07:45:58.879Z,48.4
2022-10-09T07:51:17.063Z,48.2
2022-10-09T07:56:35.527Z,48.7
2022-10-09T08:01:54.269Z,48.2
2022-10-09T08:07:12.541Z,48.5
2022-10-09T08:12:34.311Z,47.7
2022-10-09T08:17:53.062Z,48.2
2022-10-09T08:23:11.834Z,48
2022-10-09T08:28:30.522Z,46.3
2022-10-09T08:33:49.051Z,45.7
2022-10-09T08:39:07.833Z,45
2022-10-09T08:44:26.580Z,45.5
2022-10-09T08:49:45.347Z,46
2022-10-09T08:55:04.164Z,45.1
2022-10-09T09:00:22.870Z,46.3
2022-10-09T09:05:40.752Z,45.7
2022-10-09T09:10:59.259Z,46.6
2022-10-09T09:16:17.659Z,46.7
2022-10-09T09:21:36.009Z,46
2022-10-09T09:26:54.780Z,46.1
2022-10-09T09:32:13.248Z,46.3
2022-10-09T09:37:31.735Z,47.5
2022-10-09T09:42:51.724Z,48.2
2022-10-09T09:48:10.139Z,48.8
2022-10-09T09:53:28.346Z,48.4
2022-10-09T09:58:30.952Z,47.6
2022-10-09T10:03:49.421Z,48.6
2022-10-09T10:09:08.174Z,47.6
2022-10-09T10:14:26.689Z,47.8
2022-10-09T10:19:44.860Z,47.9
2022-10-09T10:25:03.058Z,48.1
2022-10-09T10:30:21.540Z,47.4
2022-10-09T10:35:40.452Z,45.9
2022-10-09T10:40:59.002Z,47.4
2022-10-09T10:46:18.053Z,47.3
2022-10-09T10:51:36.226Z,47.5
2022-10-09T10:56:54.712Z,46.4
2022-10-09T11:02:13.488Z,46
2022-10-09T11:07:31.404Z,46.4
2022-10-09T11:12:50.141Z,47
2022-10-09T11:18:08.640Z,45.1
2022-10-09T11:23:11.909Z,43.6
2022-10-09T11:28:30.463Z,44.9
2022-10-09T11:33:49.074Z,46.3
2022-10-09T11:39:07.810Z,45.9
2022-10-09T11:44:26.000Z,44.4
2022-10-09T11:49:44.509Z,43.6
2022-10-09T11:55:02.696Z,44.8
2022-10-09T12:00:21.183Z,44.5
2022-10-09T12:05:39.410Z,44.9
2022-10-09T12:10:57.854Z,44.4
2022-10-09T12:16:16.284Z,42.8
2022-10-09T12:21:34.531Z,42.4
2022-10-09T12:26:52.685Z,43
2022-10-09T12:32:11.169Z,41.5
2022-10-09T12:37:29.679Z,41.7
2022-10-09T12:42:49.323Z,40.9
2022-10-09T12:48:07.706Z,42
2022-10-09T12:53:25.650Z,41.6
2022-10-09T12:58:44.106Z,39.9
2022-10-09T13:04:02.866Z,39.7
2022-10-09T13:09:21.367Z,40.6
2022-10-09T13:14:39.546Z,40.4
2022-10-09T13:19:57.765Z,39.3
2022-10-09T13:25:16.553Z,40
2022-10-09T13:30:35.471Z,39.1
2022-10-09T13:35:53.973Z,39.4
2022-10-09T13:41:12.541Z,40.5
2022-10-09T13:46:31.582Z,40.2
2022-10-09T13:51:49.787Z,40.2
2022-10-09T13:57:08.575Z,40.8
2022-10-09T14:02:26.755Z,40.8
2022-10-09T14:07:45.834Z,40.5
2022-10-09T14:13:04.392Z,41.3
2022-10-09T14:18:22.850Z,41.5
2022-10-09T14:23:41.613Z,41
2022-10-09T14:28:59.825Z,41
2022-10-09T14:34:18.563Z,41.2
2022-10-09T14:39:37.062Z,41.5
2022-10-09T14:44:57.049Z,41.9
2022-10-09T14:50:14.949Z,42.3
2022-10-09T14:55:33.704Z,42.5
2022-10-09T15:00:51.924Z,42.6
2022-10-09T15:06:10.104Z,43.3
2022-10-09T15:11:28.309Z,43.4
2022-10-09T15:16:46.527Z,43.7
2022-10-09T15:22:04.977Z,43.3
2022-10-09T15:27:23.602Z,44.5
2022-10-09T15:32:41.839Z,45.5
2022-10-09T15:38:00.295Z,45.3
2022-10-09T15:43:18.494Z,44.7
2022-10-09T15:48:37.281Z,45.8
2022-10-09T15:53:56.025Z,45.1
2022-10-09T15:59:14.518Z,45.6
2022-10-09T16:04:33.036Z,45.6
2022-10-09T16:09:51.491Z,46.3
2022-10-09T16:15:10.551Z,46.1
2022-10-09T16:20:29.061Z,45.5
2022-10-09T16:25:47.256Z,46.1
2022-10-09T16:31:06.027Z,46
2022-10-09T16:36:24.684Z,46.3
2022-10-09T16:41:27.234Z,47.7
2022-10-09T16:46:45.915Z,47.7
2022-10-09T16:52:04.154Z,48
2022-10-09T16:57:22.596Z,47.9
2022-10-09T17:02:41.089Z,47.4
2022-10-09T17:07:59.351Z,45
2022-10-09T17:13:03.190Z,45
2022-10-09T17:18:21.935Z,46
2022-10-09T17:23:40.716Z,46.3
2022-10-09T17:28:59.429Z,47.9
2022-10-09T17:34:17.934Z,48.8
2022-10-09T17:39:36.302Z,48.8
2022-10-09T17:44:54.755Z,49.3
2022-10-09T17:50:13.236Z,47.2
2022-10-09T17:55:31.471Z,47.3
2022-10-09T18:00:50.381Z,47.3
2022-10-09T18:06:08.930Z,47.8
2022-10-09T18:11:27.439Z,47.5
2022-10-09T18:16:46.191Z,46.9
2022-10-09T18:22:04.662Z,47.2
2022-10-09T18:27:23.191Z,46.8
2022-10-09T18:32:41.938Z,46.2
2022-10-09T18:38:00.721Z,46.9
2022-10-09T18:43:18.922Z,46.2
2022-10-09T18:48:37.634Z,46.2
2022-10-09T18:53:55.838Z,46.2
2022-10-09T18:59:14.655Z,46
2022-10-09T19:04:33.110Z,47.2
2022-10-09T19:09:57.863Z,46.3
2022-10-09T19:15:16.365Z,46.7
2022-10-09T19:20:34.550Z,46.2
2022-10-09T19:25:52.740Z,46.3
2022-10-09T19:31:11.260Z,46.3
2022-10-09T19:36:29.995Z,47.3
2022-10-09T19:41:47.937Z,47.3
2022-10-09T19:47:09.138Z,47
2022-10-09T19:52:27.875Z,47.3
2022-10-09T19:57:46.074Z,47
2022-10-09T20:03:04.023Z,47.1
2022-10-09T20:08:22.751Z,46.9
2022-10-09T20:13:41.521Z,48
2022-10-09T20:19:00.024Z,47.4
2022-10-09T20:24:18.206Z,47.7
2022-10-09T20:29:36.133Z,49.3
2022-10-09T20:34:54.370Z,49.7
2022-10-09T20:40:13.109Z,50.5
2022-10-09T20:45:31.873Z,50.6
2022-10-09T20:50:50.108Z,50.9
2022-10-09T20:56:08.851Z,50.5
2022-10-09T21:01:27.398Z,50.3
2022-10-09T21:06:30.276Z,50.5
2022-10-09T21:11:48.754Z,50.9
2022-10-09T21:17:07.498Z,50.9
2022-10-09T21:22:26.283Z,50.4
2022-10-09T21:27:44.477Z,50.2
2022-10-09T21:33:02.687Z,50.5
2022-10-09T21:38:20.936Z,50.7
2022-10-09T21:43:39.358Z,51.1
2022-10-09T21:48:57.273Z,51.1
2022-10-09T21:54:15.790Z,51.1
2022-10-09T21:59:33.984Z,51
2022-10-09T22:04:52.468Z,50.7
2022-10-09T22:10:10.432Z,50.9
2022-10-09T22:15:28.607Z,50.1
2022-10-09T22:20:47.096Z,51
2022-10-09T22:26:05.335Z,50.2
2022-10-09T22:31:23.509Z,50.3
2022-10-09T22:36:42.018Z,50.6
2022-10-09T22:42:00.549Z,51.5
2022-10-09T22:47:19.283Z,50.9
2022-10-09T22:52:37.499Z,50.6
2022-10-09T22:57:56.003Z,50.6
2022-10-09T23:03:14.734Z,50.3
2022-10-09T23:08:33.227Z,51.2
2022-10-09T23:13:51.474Z,50.8
2022-10-09T23:19:09.930Z,51.3
2022-10-09T23:24:28.428Z,50.8
2022-10-09T23:29:46.962Z,50.5
2022-10-09T23:35:05.696Z,50.4
2022-10-09T23:40:24.470Z,50.5
2022-10-09T23:45:43.412Z,50.3
2022-10-09T23:51:02.003Z,51.3
2022-10-09T23:56:20.491Z,51.4
